sensor_id;sensor_type;location;lat;lon;timestamp;temperature;humidity
21246;DHT22;10781;50.928;4.440;2022-12-31T00:01:00;14.60;99.90
21246;DHT22;10781;50.928;4.440;2022-12-31T00:03:26;14.60;99.90
21246;DHT22;10781;50.928;4.440;2022-12-31T00:05:52;14.60;99.90
21246;DHT22;10781;50.928;4.440;2022-12-31T00:08:18;14.70;99.90
21246;DHT22;10781;50.928;4.440;2022-12-31T00:10:43;14.60;99.90
21246;DHT22;10781;50.928;4.440;2022-12-31T00:13:10;14.60;99.90
21246;DHT22;10781;50.928;4.440;2022-12-31T00:15:37;14.60;99.90
21246;DHT22;10781;50.928;4.440;2022-12-31T00:18:03;14.60;99.90
21246;DHT22;10781;50.928;4.440;2022-12-31T00:20:28;14.60;99.90
21246;DHT22;10781;50.928;4.440;2022-12-31T00:22:54;14.70;99.90
21246;DHT22;10781;50.928;4.440;2022-12-31T00:25:20;14.70;99.90
21246;DHT22;10781;50.928;4.440;2022-12-31T00:27:46;14.60;99.90
21246;DHT22;10781;50.928;4.440;2022-12-31T00:30:12;14.60;99.90
21246;DHT22;10781;50.928;4.440;2022-12-31T00:32:38;14.70;99.90
21246;DHT22;10781;50.928;4.440;2022-12-31T00:35:04;14.70;99.90
21246;DHT22;10781;50.928;4.440;2022-12-31T00:37:30;14.70;99.90
21246;DHT22;10781;50.928;4.440;2022-12-31T00:39:56;14.60;99.90
21246;DHT22;10781;50.928;4.440;2022-12-31T00:42:21;14.60;99.90
21246;DHT22;10781;50.928;4.440;2022-12-31T00:44:47;14.60;99.90
21246;DHT22;10781;50.928;4.440;2022-12-31T00:47:12;14.60;99.90
21246;DHT22;10781;50.928;4.440;2022-12-31T00:49:38;14.60;99.90
21246;DHT22;10781;50.928;4.440;2022-12-31T00:52:04;14.60;99.90
21246;DHT22;10781;50.928;4.440;2022-12-31T00:54:30;14.70;99.90
21246;DHT22;10781;50.928;4.440;2022-12-31T00:56:56;14.80;99.90
21246;DHT22;10781;50.928;4.440;2022-12-31T00:59:21;14.90;99.90
21246;DHT22;10781;50.928;4.440;2022-12-31T01:01:47;14.90;99.90
21246;DHT22;10781;50.928;4.440;2022-12-31T01:04:17;14.90;99.90
21246;DHT22;10781;50.928;4.440;2022-12-31T01:06:44;14.90;99.90
21246;DHT22;10781;50.928;4.440;2022-12-31T01:09:11;15.00;99.90
21246;DHT22;10781;50.928;4.440;2022-12-31T01:11:37;15.00;99.90
21246;DHT22;10781;50.928;4.440;2022-12-31T01:14:05;15.00;99.90
21246;DHT22;10781;50.928;4.440;2022-12-31T01:19:05;14.90;99.90
21246;DHT22;10781;50.928;4.440;2022-12-31T01:21:32;14.60;99.90
21246;DHT22;10781;50.928;4.440;2022-12-31T01:23:58;14.50;99.90
21246;DHT22;10781;50.928;4.440;2022-12-31T01:26:25;14.40;99.90
21246;DHT22;10781;50.928;4.440;2022-12-31T01:28:50;14.00;99.90
21246;DHT22;10781;50.928;4.440;2022-12-31T01:31:17;13.90;99.90
21246;DHT22;10781;50.928;4.440;2022-12-31T01:33:44;13.80;99.90
21246;DHT22;10781;50.928;4.440;2022-12-31T01:36:21;13.70;99.90
21246;DHT22;10781;50.928;4.440;2022-12-31T01:38:48;13.60;99.90
21246;DHT22;10781;50.928;4.440;2022-12-31T01:41:16;13.60;99.90
21246;DHT22;10781;50.928;4.440;2022-12-31T01:43:52;13.60;99.90
21246;DHT22;10781;50.928;4.440;2022-12-31T01:49:25;13.50;99.90
21246;DHT22;10781;50.928;4.440;2022-12-31T01:54:28;13.60;99.90
21246;DHT22;10781;50.928;4.440;2022-12-31T01:56:56;13.60;99.90
21246;DHT22;10781;50.928;4.440;2022-12-31T01:59:25;13.60;99.90
21246;DHT22;10781;50.928;4.440;2022-12-31T02:01:52;13.70;99.90
21246;DHT22;10781;50.928;4.440;2022-12-31T02:04:19;13.70;99.90
21246;DHT22;10781;50.928;4.440;2022-12-31T02:06:53;13.80;99.90
21246;DHT22;10781;50.928;4.440;2022-12-31T02:09:20;13.90;99.90
21246;DHT22;10781;50.928;4.440;2022-12-31T02:11:46;14.00;99.90
21246;DHT22;10781;50.928;4.440;2022-12-31T02:14:14;14.10;99.90
21246;DHT22;10781;50.928;4.440;2022-12-31T02:31:28;14.60;99.90
21246;DHT22;10781;50.928;4.440;2022-12-31T02:36:43;14.60;99.90
21246;DHT22;10781;50.928;4.440;2022-12-31T02:39:11;14.70;99.90
21246;DHT22;10781;50.928;4.440;2022-12-31T02:41:37;14.70;99.90
21246;DHT22;10781;50.928;4.440;2022-12-31T02:44:29;14.70;99.90
21246;DHT22;10781;50.928;4.440;2022-12-31T02:54:35;14.80;99.90
21246;DHT22;10781;50.928;4.440;2022-12-31T02:57:10;14.80;99.90
21246;DHT22;10781;50.928;4.440;2022-12-31T03:00:00;14.80;99.90
21246;DHT22;10781;50.928;4.440;2022-12-31T03:02:46;14.90;99.90
21246;DHT22;10781;50.928;4.440;2022-12-31T03:05:15;15.00;99.90
21246;DHT22;10781;50.928;4.440;2022-12-31T03:07:43;14.90;99.90
21246;DHT22;10781;50.928;4.440;2022-12-31T03:10:09;14.90;99.90
21246;DHT22;10781;50.928;4.440;2022-12-31T03:12:36;14.80;99.90
21246;DHT22;10781;50.928;4.440;2022-12-31T03:15:31;14.90;99.90
21246;DHT22;10781;50.928;4.440;2022-12-31T03:18:09;14.90;99.90
21246;DHT22;10781;50.928;4.440;2022-12-31T03:20:38;14.90;99.90
21246;DHT22;10781;50.928;4.440;2022-12-31T03:23:35;15.00;99.90
21246;DHT22;10781;50.928;4.440;2022-12-31T03:26:02;15.00;99.90
21246;DHT22;10781;50.928;4.440;2022-12-31T03:28:29;15.00;99.90
21246;DHT22;10781;50.928;4.440;2022-12-31T03:31:00;15.10;99.90
21246;DHT22;10781;50.928;4.440;2022-12-31T03:33:33;15.10;99.90
21246;DHT22;10781;50.928;4.440;2022-12-31T03:36:09;15.10;99.90
21246;DHT22;10781;50.928;4.440;2022-12-31T03:38:35;15.10;99.90
21246;DHT22;10781;50.928;4.440;2022-12-31T03:41:01;15.20;99.90
21246;DHT22;10781;50.928;4.440;2022-12-31T03:43:27;15.20;99.90
21246;DHT22;10781;50.928;4.440;2022-12-31T03:45:53;15.20;99.90
21246;DHT22;10781;50.928;4.440;2022-12-31T03:48:21;15.20;99.90
21246;DHT22;10781;50.928;4.440;2022-12-31T03:50:46;15.30;99.90
21246;DHT22;10781;50.928;4.440;2022-12-31T03:53:12;15.30;99.90
21246;DHT22;10781;50.928;4.440;2022-12-31T03:55:38;15.30;99.90
21246;DHT22;10781;50.928;4.440;2022-12-31T03:58:04;15.40;99.90
21246;DHT22;10781;50.928;4.440;2022-12-31T04:00:29;15.40;99.90
21246;DHT22;10781;50.928;4.440;2022-12-31T04:02:55;15.50;99.90
21246;DHT22;10781;50.928;4.440;2022-12-31T04:05:21;15.60;99.90
21246;DHT22;10781;50.928;4.440;2022-12-31T04:07:47;15.60;99.90
21246;DHT22;10781;50.928;4.440;2022-12-31T04:10:15;15.50;99.90
21246;DHT22;10781;50.928;4.440;2022-12-31T04:12:41;15.50;99.90
21246;DHT22;10781;50.928;4.440;2022-12-31T04:15:08;15.60;99.90
21246;DHT22;10781;50.928;4.440;2022-12-31T04:17:34;15.60;99.90
21246;DHT22;10781;50.928;4.440;2022-12-31T04:20:00;15.50;99.90
21246;DHT22;10781;50.928;4.440;2022-12-31T04:22:26;15.50;99.90
21246;DHT22;10781;50.928;4.440;2022-12-31T04:24:52;15.60;99.90
21246;DHT22;10781;50.928;4.440;2022-12-31T04:27:17;15.70;99.90
21246;DHT22;10781;50.928;4.440;2022-12-31T04:29:43;15.70;99.90
21246;DHT22;10781;50.928;4.440;2022-12-31T04:32:09;15.70;99.90
21246;DHT22;10781;50.928;4.440;2022-12-31T04:34:35;15.80;99.90
21246;DHT22;10781;50.928;4.440;2022-12-31T04:37:01;15.70;99.90
21246;DHT22;10781;50.928;4.440;2022-12-31T04:39:27;15.50;99.90
21246;DHT22;10781;50.928;4.440;2022-12-31T04:41:52;15.40;99.90
21246;DHT22;10781;50.928;4.440;2022-12-31T04:44:19;15.40;99.90
21246;DHT22;10781;50.928;4.440;2022-12-31T04:46:45;15.30;99.90
21246;DHT22;10781;50.928;4.440;2022-12-31T04:49:11;15.30;99.90
21246;DHT22;10781;50.928;4.440;2022-12-31T04:51:37;15.30;99.90
21246;DHT22;10781;50.928;4.440;2022-12-31T04:54:02;15.30;99.90
21246;DHT22;10781;50.928;4.440;2022-12-31T04:56:29;15.30;99.90
21246;DHT22;10781;50.928;4.440;2022-12-31T04:58:55;15.30;99.90
21246;DHT22;10781;50.928;4.440;2022-12-31T05:01:21;15.40;99.90
21246;DHT22;10781;50.928;4.440;2022-12-31T05:03:47;15.50;99.90
21246;DHT22;10781;50.928;4.440;2022-12-31T05:06:18;15.50;99.90
21246;DHT22;10781;50.928;4.440;2022-12-31T05:08:44;15.50;99.90
21246;DHT22;10781;50.928;4.440;2022-12-31T05:11:10;15.60;99.90
21246;DHT22;10781;50.928;4.440;2022-12-31T05:13:36;15.60;99.90
21246;DHT22;10781;50.928;4.440;2022-12-31T05:16:02;15.70;99.90
21246;DHT22;10781;50.928;4.440;2022-12-31T05:18:29;15.80;99.90
21246;DHT22;10781;50.928;4.440;2022-12-31T05:20:54;15.90;99.90
21246;DHT22;10781;50.928;4.440;2022-12-31T05:23:21;16.00;99.90
21246;DHT22;10781;50.928;4.440;2022-12-31T05:25:47;16.00;99.90
21246;DHT22;10781;50.928;4.440;2022-12-31T05:28:13;16.10;99.90
21246;DHT22;10781;50.928;4.440;2022-12-31T05:30:39;16.10;99.90
21246;DHT22;10781;50.928;4.440;2022-12-31T05:33:05;16.10;99.90
21246;DHT22;10781;50.928;4.440;2022-12-31T05:35:31;16.10;99.90
21246;DHT22;10781;50.928;4.440;2022-12-31T05:37:58;16.20;99.90
21246;DHT22;10781;50.928;4.440;2022-12-31T05:40:23;16.20;99.90
21246;DHT22;10781;50.928;4.440;2022-12-31T05:42:49;16.30;99.90
21246;DHT22;10781;50.928;4.440;2022-12-31T05:45:15;16.30;99.90
21246;DHT22;10781;50.928;4.440;2022-12-31T05:47:41;16.30;99.90
21246;DHT22;10781;50.928;4.440;2022-12-31T05:50:09;16.30;99.90
21246;DHT22;10781;50.928;4.440;2022-12-31T05:52:35;16.30;99.90
21246;DHT22;10781;50.928;4.440;2022-12-31T05:55:01;16.40;99.90
21246;DHT22;10781;50.928;4.440;2022-12-31T05:57:27;16.50;99.90
21246;DHT22;10781;50.928;4.440;2022-12-31T05:59:53;16.50;99.90
21246;DHT22;10781;50.928;4.440;2022-12-31T06:02:19;16.40;99.90
21246;DHT22;10781;50.928;4.440;2022-12-31T06:04:45;16.40;99.90
21246;DHT22;10781;50.928;4.440;2022-12-31T06:07:11;16.50;99.90
21246;DHT22;10781;50.928;4.440;2022-12-31T06:09:37;16.60;99.90
21246;DHT22;10781;50.928;4.440;2022-12-31T06:12:02;16.60;99.90
21246;DHT22;10781;50.928;4.440;2022-12-31T06:14:28;16.60;99.90
21246;DHT22;10781;50.928;4.440;2022-12-31T06:16:54;16.60;99.90
21246;DHT22;10781;50.928;4.440;2022-12-31T06:19:20;16.70;99.90
21246;DHT22;10781;50.928;4.440;2022-12-31T06:21:45;16.50;99.90
21246;DHT22;10781;50.928;4.440;2022-12-31T06:24:11;16.40;99.90
21246;DHT22;10781;50.928;4.440;2022-12-31T06:26:37;16.40;99.90
21246;DHT22;10781;50.928;4.440;2022-12-31T06:29:03;16.40;99.90
21246;DHT22;10781;50.928;4.440;2022-12-31T06:31:29;16.40;99.90
21246;DHT22;10781;50.928;4.440;2022-12-31T06:33:54;16.30;99.90
21246;DHT22;10781;50.928;4.440;2022-12-31T06:36:20;16.30;99.90
21246;DHT22;10781;50.928;4.440;2022-12-31T06:38:47;16.30;99.90
21246;DHT22;10781;50.928;4.440;2022-12-31T06:41:14;16.30;99.90
21246;DHT22;10781;50.928;4.440;2022-12-31T06:43:41;16.40;99.90
21246;DHT22;10781;50.928;4.440;2022-12-31T06:46:09;16.50;99.90
21246;DHT22;10781;50.928;4.440;2022-12-31T06:48:36;16.60;99.90
21246;DHT22;10781;50.928;4.440;2022-12-31T06:51:07;16.40;99.90
21246;DHT22;10781;50.928;4.440;2022-12-31T06:53:33;16.40;99.90
21246;DHT22;10781;50.928;4.440;2022-12-31T06:56:13;16.40;99.90
21246;DHT22;10781;50.928;4.440;2022-12-31T06:58:39;16.30;99.90
21246;DHT22;10781;50.928;4.440;2022-12-31T07:10:02;16.10;99.90
21246;DHT22;10781;50.928;4.440;2022-12-31T07:12:44;16.00;99.90
21246;DHT22;10781;50.928;4.440;2022-12-31T07:18:23;15.70;99.90
21246;DHT22;10781;50.928;4.440;2022-12-31T07:20:53;15.70;99.90
21246;DHT22;10781;50.928;4.440;2022-12-31T07:23:19;15.60;99.90
21246;DHT22;10781;50.928;4.440;2022-12-31T07:25:53;15.60;99.90
21246;DHT22;10781;50.928;4.440;2022-12-31T07:29:06;15.50;99.90
21246;DHT22;10781;50.928;4.440;2022-12-31T07:31:29;15.50;99.90
21246;DHT22;10781;50.928;4.440;2022-12-31T07:34:03;15.50;99.90
21246;DHT22;10781;50.928;4.440;2022-12-31T07:36:58;15.50;99.90
21246;DHT22;10781;50.928;4.440;2022-12-31T07:47:42;15.70;99.90
21246;DHT22;10781;50.928;4.440;2022-12-31T07:50:14;15.70;99.90
21246;DHT22;10781;50.928;4.440;2022-12-31T07:52:41;15.70;99.90
21246;DHT22;10781;50.928;4.440;2022-12-31T07:55:07;15.60;99.90
21246;DHT22;10781;50.928;4.440;2022-12-31T07:57:40;15.60;99.90
21246;DHT22;10781;50.928;4.440;2022-12-31T08:00:11;15.60;99.90
21246;DHT22;10781;50.928;4.440;2022-12-31T08:11:30;15.50;99.90
21246;DHT22;10781;50.928;4.440;2022-12-31T08:14:00;15.60;99.90
21246;DHT22;10781;50.928;4.440;2022-12-31T08:16:27;15.50;99.90
21246;DHT22;10781;50.928;4.440;2022-12-31T08:18:53;15.60;99.90
21246;DHT22;10781;50.928;4.440;2022-12-31T08:26:37;15.70;99.90
21246;DHT22;10781;50.928;4.440;2022-12-31T08:29:25;15.70;99.90
21246;DHT22;10781;50.928;4.440;2022-12-31T08:32:13;15.80;99.90
21246;DHT22;10781;50.928;4.440;2022-12-31T08:37:50;15.90;99.90
21246;DHT22;10781;50.928;4.440;2022-12-31T08:46:27;16.10;99.90
21246;DHT22;10781;50.928;4.440;2022-12-31T08:48:53;16.30;99.90
21246;DHT22;10781;50.928;4.440;2022-12-31T08:51:21;16.40;99.90
21246;DHT22;10781;50.928;4.440;2022-12-31T08:53:47;16.50;99.90
21246;DHT22;10781;50.928;4.440;2022-12-31T08:59:33;16.70;99.90
21246;DHT22;10781;50.928;4.440;2022-12-31T09:10:56;16.90;99.90
21246;DHT22;10781;50.928;4.440;2022-12-31T09:13:26;16.80;99.90
21246;DHT22;10781;50.928;4.440;2022-12-31T09:18:33;16.90;99.90
21246;DHT22;10781;50.928;4.440;2022-12-31T09:21:02;17.00;99.90
21246;DHT22;10781;50.928;4.440;2022-12-31T09:23:28;17.00;99.90
21246;DHT22;10781;50.928;4.440;2022-12-31T09:26:17;17.00;99.90
21246;DHT22;10781;50.928;4.440;2022-12-31T09:29:25;17.00;99.90
21246;DHT22;10781;50.928;4.440;2022-12-31T09:34:58;16.90;99.90
21246;DHT22;10781;50.928;4.440;2022-12-31T09:37:37;17.00;99.90
21246;DHT22;10781;50.928;4.440;2022-12-31T09:43:44;17.00;99.90
21246;DHT22;10781;50.928;4.440;2022-12-31T09:54:31;16.70;99.90
21246;DHT22;10781;50.928;4.440;2022-12-31T10:00:03;16.60;99.90
21246;DHT22;10781;50.928;4.440;2022-12-31T10:10:52;16.90;99.90
21246;DHT22;10781;50.928;4.440;2022-12-31T10:29:47;17.40;99.90
21246;DHT22;10781;50.928;4.440;2022-12-31T10:37:54;17.30;99.90
21246;DHT22;10781;50.928;4.440;2022-12-31T10:45:53;17.40;99.90
21246;DHT22;10781;50.928;4.440;2022-12-31T10:51:35;17.30;99.90
21246;DHT22;10781;50.928;4.440;2022-12-31T11:00:18;17.30;99.90
21246;DHT22;10781;50.928;4.440;2022-12-31T11:05:47;17.40;99.90
21246;DHT22;10781;50.928;4.440;2022-12-31T11:11:05;17.20;99.90
21246;DHT22;10781;50.928;4.440;2022-12-31T11:22:06;16.80;99.90
21246;DHT22;10781;50.928;4.440;2022-12-31T11:31:17;16.50;99.90
21246;DHT22;10781;50.928;4.440;2022-12-31T11:36:16;16.30;99.90
21246;DHT22;10781;50.928;4.440;2022-12-31T11:38:52;16.30;99.90
21246;DHT22;10781;50.928;4.440;2022-12-31T11:41:45;16.30;99.90
21246;DHT22;10781;50.928;4.440;2022-12-31T11:44:39;16.30;99.90
21246;DHT22;10781;50.928;4.440;2022-12-31T11:47:33;16.40;99.90
21246;DHT22;10781;50.928;4.440;2022-12-31T11:51:33;16.50;99.90
21246;DHT22;10781;50.928;4.440;2022-12-31T11:56:31;16.50;99.90
21246;DHT22;10781;50.928;4.440;2022-12-31T11:58:58;16.60;99.90
21246;DHT22;10781;50.928;4.440;2022-12-31T12:01:35;16.70;99.90
21246;DHT22;10781;50.928;4.440;2022-12-31T12:04:04;16.80;99.90
21246;DHT22;10781;50.928;4.440;2022-12-31T12:06:31;17.00;99.90
21246;DHT22;10781;50.928;4.440;2022-12-31T12:09:03;17.20;99.90
21246;DHT22;10781;50.928;4.440;2022-12-31T12:11:33;17.40;99.90
21246;DHT22;10781;50.928;4.440;2022-12-31T12:13:59;17.50;99.90
21246;DHT22;10781;50.928;4.440;2022-12-31T12:16:25;17.50;99.90
21246;DHT22;10781;50.928;4.440;2022-12-31T12:21:27;17.70;99.90
21246;DHT22;10781;50.928;4.440;2022-12-31T12:24:03;17.70;99.90
21246;DHT22;10781;50.928;4.440;2022-12-31T12:29:06;17.40;99.90
21246;DHT22;10781;50.928;4.440;2022-12-31T12:31:33;17.10;99.90
21246;DHT22;10781;50.928;4.440;2022-12-31T12:33:58;17.00;99.90
21246;DHT22;10781;50.928;4.440;2022-12-31T12:36:24;16.80;99.90
21246;DHT22;10781;50.928;4.440;2022-12-31T12:39:03;16.80;99.90
21246;DHT22;10781;50.928;4.440;2022-12-31T12:41:29;16.80;99.90
21246;DHT22;10781;50.928;4.440;2022-12-31T12:44:06;16.80;99.90
21246;DHT22;10781;50.928;4.440;2022-12-31T12:46:35;16.80;99.90
21246;DHT22;10781;50.928;4.440;2022-12-31T12:49:03;16.80;99.90
21246;DHT22;10781;50.928;4.440;2022-12-31T12:51:41;16.90;99.90
21246;DHT22;10781;50.928;4.440;2022-12-31T13:00:16;17.00;99.90
21246;DHT22;10781;50.928;4.440;2022-12-31T13:06:55;17.30;99.90
21246;DHT22;10781;50.928;4.440;2022-12-31T13:11:40;17.40;99.90
21246;DHT22;10781;50.928;4.440;2022-12-31T13:14:43;17.30;99.90
21246;DHT22;10781;50.928;4.440;2022-12-31T13:20:33;17.30;99.90
21246;DHT22;10781;50.928;4.440;2022-12-31T13:23:24;17.10;99.90
21246;DHT22;10781;50.928;4.440;2022-12-31T13:26:18;17.20;99.90
21246;DHT22;10781;50.928;4.440;2022-12-31T13:28:46;17.30;99.90
21246;DHT22;10781;50.928;4.440;2022-12-31T13:31:18;17.20;99.90
21246;DHT22;10781;50.928;4.440;2022-12-31T13:33:51;17.20;99.90
21246;DHT22;10781;50.928;4.440;2022-12-31T13:36:22;17.30;99.90
21246;DHT22;10781;50.928;4.440;2022-12-31T13:38:59;17.30;99.90
21246;DHT22;10781;50.928;4.440;2022-12-31T13:41:42;17.40;99.90
21246;DHT22;10781;50.928;4.440;2022-12-31T13:44:23;17.30;99.90
21246;DHT22;10781;50.928;4.440;2022-12-31T13:49:26;17.30;99.90
21246;DHT22;10781;50.928;4.440;2022-12-31T13:54:43;17.50;99.90
21246;DHT22;10781;50.928;4.440;2022-12-31T13:59:57;17.40;99.90
21246;DHT22;10781;50.928;4.440;2022-12-31T14:02:42;17.40;99.90
21246;DHT22;10781;50.928;4.440;2022-12-31T14:05:41;17.40;99.90
21246;DHT22;10781;50.928;4.440;2022-12-31T14:08:05;17.40;99.90
21246;DHT22;10781;50.928;4.440;2022-12-31T14:13:36;17.40;99.90
21246;DHT22;10781;50.928;4.440;2022-12-31T14:21:58;17.30;99.90
21246;DHT22;10781;50.928;4.440;2022-12-31T14:24:36;17.40;99.90
21246;DHT22;10781;50.928;4.440;2022-12-31T14:27:13;17.30;99.90
21246;DHT22;10781;50.928;4.440;2022-12-31T14:32:42;17.30;99.90
21246;DHT22;10781;50.928;4.440;2022-12-31T14:38:08;17.30;99.90
21246;DHT22;10781;50.928;4.440;2022-12-31T14:52:22;17.20;99.90
21246;DHT22;10781;50.928;4.440;2022-12-31T14:57:35;17.00;99.90
21246;DHT22;10781;50.928;4.440;2022-12-31T15:00:23;17.00;99.90
21246;DHT22;10781;50.928;4.440;2022-12-31T15:02:51;16.90;99.90
21246;DHT22;10781;50.928;4.440;2022-12-31T15:05:23;16.90;99.90
21246;DHT22;10781;50.928;4.440;2022-12-31T15:07:57;17.00;99.90
21246;DHT22;10781;50.928;4.440;2022-12-31T15:16:17;16.90;99.90
21246;DHT22;10781;50.928;4.440;2022-12-31T15:18:59;16.80;99.90
21246;DHT22;10781;50.928;4.440;2022-12-31T15:24:28;16.80;99.90
21246;DHT22;10781;50.928;4.440;2022-12-31T15:27:05;16.80;99.90
21246;DHT22;10781;50.928;4.440;2022-12-31T15:29:51;16.80;99.90
21246;DHT22;10781;50.928;4.440;2022-12-31T15:32:38;16.70;99.90
21246;DHT22;10781;50.928;4.440;2022-12-31T15:40:23;16.70;99.90
21246;DHT22;10781;50.928;4.440;2022-12-31T15:43:21;16.60;99.90
21246;DHT22;10781;50.928;4.440;2022-12-31T15:45:47;16.60;99.90
21246;DHT22;10781;50.928;4.440;2022-12-31T15:50:54;16.70;99.90
21246;DHT22;10781;50.928;4.440;2022-12-31T15:53:33;16.70;99.90
21246;DHT22;10781;50.928;4.440;2022-12-31T15:56:01;16.60;99.90
21246;DHT22;10781;50.928;4.440;2022-12-31T15:58:30;16.50;99.90
21246;DHT22;10781;50.928;4.440;2022-12-31T16:03:59;16.50;99.90
21246;DHT22;10781;50.928;4.440;2022-12-31T16:06:28;16.50;99.90
21246;DHT22;10781;50.928;4.440;2022-12-31T16:08:54;16.50;99.90
21246;DHT22;10781;50.928;4.440;2022-12-31T16:11:21;16.50;99.90
21246;DHT22;10781;50.928;4.440;2022-12-31T16:13:51;16.60;99.90
21246;DHT22;10781;50.928;4.440;2022-12-31T16:16:21;16.50;99.90
21246;DHT22;10781;50.928;4.440;2022-12-31T16:18:48;16.40;99.90
21246;DHT22;10781;50.928;4.440;2022-12-31T16:21:53;16.40;99.90
21246;DHT22;10781;50.928;4.440;2022-12-31T16:24:31;16.30;99.90
21246;DHT22;10781;50.928;4.440;2022-12-31T16:27:01;16.50;99.90
21246;DHT22;10781;50.928;4.440;2022-12-31T16:29:35;16.40;99.90
21246;DHT22;10781;50.928;4.440;2022-12-31T16:32:03;16.40;99.90
21246;DHT22;10781;50.928;4.440;2022-12-31T16:34:35;16.30;99.90
21246;DHT22;10781;50.928;4.440;2022-12-31T16:37:04;16.30;99.90
21246;DHT22;10781;50.928;4.440;2022-12-31T16:44:39;16.20;99.90
21246;DHT22;10781;50.928;4.440;2022-12-31T16:47:06;16.20;99.90
21246;DHT22;10781;50.928;4.440;2022-12-31T16:49:34;16.20;99.90
21246;DHT22;10781;50.928;4.440;2022-12-31T16:52:04;16.30;99.90
21246;DHT22;10781;50.928;4.440;2022-12-31T16:54:34;16.20;99.90
21246;DHT22;10781;50.928;4.440;2022-12-31T16:57:01;16.20;99.90
21246;DHT22;10781;50.928;4.440;2022-12-31T16:59:38;16.30;99.90
21246;DHT22;10781;50.928;4.440;2022-12-31T17:02:17;16.10;99.90
21246;DHT22;10781;50.928;4.440;2022-12-31T17:04:48;16.20;99.90
21246;DHT22;10781;50.928;4.440;2022-12-31T17:12:35;16.20;99.90
21246;DHT22;10781;50.928;4.440;2022-12-31T17:15:05;16.20;99.90
21246;DHT22;10781;50.928;4.440;2022-12-31T17:17:33;16.20;99.90
21246;DHT22;10781;50.928;4.440;2022-12-31T17:20:04;16.10;99.90
21246;DHT22;10781;50.928;4.440;2022-12-31T17:22:44;16.10;99.90
21246;DHT22;10781;50.928;4.440;2022-12-31T17:27:57;16.20;99.90
21246;DHT22;10781;50.928;4.440;2022-12-31T17:33:00;16.00;99.90
21246;DHT22;10781;50.928;4.440;2022-12-31T17:35:35;16.00;99.90
21246;DHT22;10781;50.928;4.440;2022-12-31T17:40:49;16.10;99.90
21246;DHT22;10781;50.928;4.440;2022-12-31T17:43:19;16.20;99.90
21246;DHT22;10781;50.928;4.440;2022-12-31T17:45:46;16.20;99.90
21246;DHT22;10781;50.928;4.440;2022-12-31T17:48:14;16.30;99.90
21246;DHT22;10781;50.928;4.440;2022-12-31T17:50:49;16.30;99.90
21246;DHT22;10781;50.928;4.440;2022-12-31T18:01:48;16.30;99.90
21246;DHT22;10781;50.928;4.440;2022-12-31T18:04:16;16.20;99.90
21246;DHT22;10781;50.928;4.440;2022-12-31T18:06:45;16.30;99.90
21246;DHT22;10781;50.928;4.440;2022-12-31T18:09:12;16.30;99.90
21246;DHT22;10781;50.928;4.440;2022-12-31T18:11:42;16.20;99.90
21246;DHT22;10781;50.928;4.440;2022-12-31T18:14:16;16.20;99.90
21246;DHT22;10781;50.928;4.440;2022-12-31T18:16:42;16.20;99.90
21246;DHT22;10781;50.928;4.440;2022-12-31T18:19:14;16.30;99.90
21246;DHT22;10781;50.928;4.440;2022-12-31T18:21:45;16.40;99.90
21246;DHT22;10781;50.928;4.440;2022-12-31T18:24:17;16.40;99.90
21246;DHT22;10781;50.928;4.440;2022-12-31T18:26:44;16.40;99.90
21246;DHT22;10781;50.928;4.440;2022-12-31T18:29:28;16.50;99.90
21246;DHT22;10781;50.928;4.440;2022-12-31T18:32:00;16.50;99.90
21246;DHT22;10781;50.928;4.440;2022-12-31T18:34:28;16.50;99.90
21246;DHT22;10781;50.928;4.440;2022-12-31T18:39:33;16.50;99.90
21246;DHT22;10781;50.928;4.440;2022-12-31T18:42:01;16.50;99.90
21246;DHT22;10781;50.928;4.440;2022-12-31T18:44:28;16.50;99.90
21246;DHT22;10781;50.928;4.440;2022-12-31T18:47:00;16.50;99.90
21246;DHT22;10781;50.928;4.440;2022-12-31T18:49:30;16.50;99.90
21246;DHT22;10781;50.928;4.440;2022-12-31T18:52:17;16.50;99.90
21246;DHT22;10781;50.928;4.440;2022-12-31T18:54:46;16.40;99.90
21246;DHT22;10781;50.928;4.440;2022-12-31T18:57:14;16.50;99.90
21246;DHT22;10781;50.928;4.440;2022-12-31T18:59:43;16.40;99.90
21246;DHT22;10781;50.928;4.440;2022-12-31T19:02:21;16.50;99.90
21246;DHT22;10781;50.928;4.440;2022-12-31T19:04:51;16.30;99.90
21246;DHT22;10781;50.928;4.440;2022-12-31T19:07:19;16.40;99.90
21246;DHT22;10781;50.928;4.440;2022-12-31T19:09:46;16.40;99.90
21246;DHT22;10781;50.928;4.440;2022-12-31T19:12:21;16.50;99.90
21246;DHT22;10781;50.928;4.440;2022-12-31T19:14:53;16.40;99.90
21246;DHT22;10781;50.928;4.440;2022-12-31T19:17:41;16.40;99.90
21246;DHT22;10781;50.928;4.440;2022-12-31T19:20:20;16.40;99.90
21246;DHT22;10781;50.928;4.440;2022-12-31T19:22:48;16.40;99.90
21246;DHT22;10781;50.928;4.440;2022-12-31T19:25:32;16.50;99.90
21246;DHT22;10781;50.928;4.440;2022-12-31T19:28:30;16.40;99.90
21246;DHT22;10781;50.928;4.440;2022-12-31T19:30:56;16.30;99.90
21246;DHT22;10781;50.928;4.440;2022-12-31T19:36:00;16.30;99.90
21246;DHT22;10781;50.928;4.440;2022-12-31T19:38:35;16.30;99.90
21246;DHT22;10781;50.928;4.440;2022-12-31T19:41:03;16.30;99.90
21246;DHT22;10781;50.928;4.440;2022-12-31T19:43:30;16.20;99.90
21246;DHT22;10781;50.928;4.440;2022-12-31T19:51:19;16.20;99.90
21246;DHT22;10781;50.928;4.440;2022-12-31T19:53:57;16.20;99.90
21246;DHT22;10781;50.928;4.440;2022-12-31T19:56:25;16.30;99.90
21246;DHT22;10781;50.928;4.440;2022-12-31T19:58:58;16.20;99.90
21246;DHT22;10781;50.928;4.440;2022-12-31T20:01:33;16.20;99.90
21246;DHT22;10781;50.928;4.440;2022-12-31T20:04:00;16.20;99.90
21246;DHT22;10781;50.928;4.440;2022-12-31T20:06:27;16.30;99.90
21246;DHT22;10781;50.928;4.440;2022-12-31T20:08:54;16.20;99.90
21246;DHT22;10781;50.928;4.440;2022-12-31T20:11:22;16.10;99.90
21246;DHT22;10781;50.928;4.440;2022-12-31T20:13:52;16.30;99.90
21246;DHT22;10781;50.928;4.440;2022-12-31T20:24:12;16.40;99.90
21246;DHT22;10781;50.928;4.440;2022-12-31T20:26:44;16.30;99.90
21246;DHT22;10781;50.928;4.440;2022-12-31T20:31:51;16.40;99.90
21246;DHT22;10781;50.928;4.440;2022-12-31T20:34:21;16.40;99.90
21246;DHT22;10781;50.928;4.440;2022-12-31T20:39:26;16.40;99.90
21246;DHT22;10781;50.928;4.440;2022-12-31T20:41:55;16.40;99.90
21246;DHT22;10781;50.928;4.440;2022-12-31T20:44:25;16.30;99.90
21246;DHT22;10781;50.928;4.440;2022-12-31T20:46:52;16.30;99.90
21246;DHT22;10781;50.928;4.440;2022-12-31T20:49:18;16.30;99.90
21246;DHT22;10781;50.928;4.440;2022-12-31T20:51:51;16.20;99.90
21246;DHT22;10781;50.928;4.440;2022-12-31T20:54:16;16.30;99.90
21246;DHT22;10781;50.928;4.440;2022-12-31T20:56:47;16.20;99.90
21246;DHT22;10781;50.928;4.440;2022-12-31T20:59:15;16.20;99.90
21246;DHT22;10781;50.928;4.440;2022-12-31T21:01:48;16.30;99.90